Time;durP1;ratioP1;P1;durP2;ratioP2;P2;SDS_P1;SDS_P2;PMS_P1;PMS_P2;Temp;Humidity;BMP_temperature;BMP_pressure;BME280_temperature;BME280_humidity;BME280_pressure;Samples;Min_cycle;Max_cycle;Signal;HPM_P1;HPM_P2
2023/01/25 00:00:14;;;;;;;16.00;10.57;;;11.10;1.00;;;;;;5071870;28;20032;-59
2023/01/25 00:02:39;;;;;;;17.27;12.48;;;11.20;1.00;;;;;;5071751;28;20474;-60
2023/01/25 00:05:05;;;;;;;19.02;12.27;;;11.20;1.00;;;;;;5071840;28;20025;-60
2023/01/25 00:07:31;;;;;;;18.52;13.05;;;11.20;1.00;;;;;;5071755;28;20481;-60
2023/01/25 00:09:57;;;;;;;18.77;13.82;;;11.10;1.00;;;;;;5071965;28;20036;-60
2023/01/25 00:12:22;;;;;;;20.38;14.77;;;11.20;1.00;;;;;;5071936;28;20032;-60
2023/01/25 00:14:48;;;;;;;18.27;13.82;;;11.10;1.00;;;;;;5071692;28;20478;-59
2023/01/25 00:24:38;;;;;;;21.60;15.25;;;10.70;1.00;;;;;;5055233;28;20243;-59
2023/01/25 00:27:04;;;;;;;19.98;15.07;;;10.80;1.00;;;;;;5071587;28;20195;-59
2023/01/25 00:29:29;;;;;;;23.75;18.92;;;10.80;1.00;;;;;;5071491;28;20037;-59
2023/01/25 00:32:26;;;;;;;22.85;19.05;;;10.80;1.00;;;;;;5071722;28;20130;-59
2023/01/25 00:34:52;;;;;;;24.83;17.83;;;10.90;1.00;;;;;;5071629;28;20470;-59
2023/01/25 00:37:21;;;;;;;21.80;16.70;;;10.70;1.00;;;;;;5071189;28;20031;-60
2023/01/25 00:39:47;;;;;;;23.08;16.55;;;10.80;1.00;;;;;;5072544;28;20131;-59
2023/01/25 00:42:14;;;;;;;21.13;15.32;;;10.60;1.00;;;;;;5074952;28;20457;-59
2023/01/25 00:44:40;;;;;;;21.17;15.30;;;10.80;1.00;;;;;;5074993;28;20021;-59
2023/01/25 00:47:06;;;;;;;19.25;15.02;;;10.70;1.00;;;;;;5073812;28;20027;-59
2023/01/25 00:49:32;;;;;;;20.75;14.80;;;10.60;1.00;;;;;;5073896;28;20120;-59
2023/01/25 00:51:58;;;;;;;20.70;14.80;;;10.80;1.00;;;;;;5075177;28;20198;-59
2023/01/25 00:54:25;;;;;;;19.50;14.02;;;10.70;1.00;;;;;;5074782;28;20051;-59
2023/01/25 00:56:52;;;;;;;18.00;12.98;;;10.70;1.00;;;;;;5074994;28;20025;-59
2023/01/25 00:59:19;;;;;;;17.77;14.15;;;10.80;1.00;;;;;;5074615;28;20021;-59
2023/01/25 01:01:44;;;;;;;18.20;13.73;;;10.80;1.00;;;;;;5074869;28;20370;-59
2023/01/25 01:04:10;;;;;;;18.13;13.75;;;10.70;1.00;;;;;;5074633;28;20020;-60
2023/01/25 01:06:37;;;;;;;18.05;13.80;;;10.70;1.00;;;;;;5074910;28;20016;-59
2023/01/25 01:09:04;;;;;;;19.63;13.55;;;10.60;1.00;;;;;;5074539;28;20428;-60
2023/01/25 01:11:30;;;;;;;18.02;13.05;;;10.70;1.00;;;;;;5074569;28;20029;-60
2023/01/25 01:13:57;;;;;;;17.95;13.80;;;10.80;1.00;;;;;;5074714;28;20086;-60
2023/01/25 01:16:22;;;;;;;17.30;12.98;;;10.70;1.00;;;;;;5074775;28;20059;-60
2023/01/25 01:18:49;;;;;;;19.60;13.73;;;10.70;1.00;;;;;;5074846;28;20056;-60
2023/01/25 01:21:15;;;;;;;21.08;13.82;;;10.80;1.00;;;;;;5074431;28;20478;-59
2023/01/25 01:23:41;;;;;;;20.40;14.00;;;10.70;1.00;;;;;;5073092;28;20070;-60
2023/01/25 01:26:10;;;;;;;19.33;13.75;;;10.60;1.00;;;;;;5074577;28;20378;-59
2023/01/25 01:28:39;;;;;;;17.85;13.90;;;10.70;1.00;;;;;;5073957;28;20064;-60
2023/01/25 01:31:11;;;;;;;21.52;14.57;;;10.70;1.00;;;;;;5074323;28;20031;-59
2023/01/25 01:33:37;;;;;;;19.30;14.43;;;10.80;1.00;;;;;;5074171;28;20037;-59
2023/01/25 01:36:13;;;;;;;20.65;14.32;;;10.70;1.00;;;;;;5073959;28;20032;-59
2023/01/25 01:38:40;;;;;;;18.70;13.98;;;10.70;1.00;;;;;;5074011;28;20485;-59
2023/01/25 01:41:06;;;;;;;17.38;13.05;;;10.80;1.00;;;;;;5074183;28;20024;-59
2023/01/25 01:43:32;;;;;;;20.00;15.07;;;10.80;1.00;;;;;;5067657;28;20144;-59
2023/01/25 01:46:00;;;;;;;20.27;14.93;;;10.80;1.00;;;;;;5060761;28;20032;-59
2023/01/25 01:48:39;;;;;;;19.73;15.18;;;10.80;1.00;;;;;;5073780;28;20054;-59
2023/01/25 01:51:11;;;;;;;22.80;16.13;;;10.60;1.00;;;;;;5072940;28;20028;-60
2023/01/25 01:53:40;;;;;;;25.08;17.88;;;10.60;1.00;;;;;;5073108;28;20091;-59
2023/01/25 01:56:10;;;;;;;20.87;16.33;;;10.60;1.00;;;;;;5073834;28;20024;-61
2023/01/25 01:58:36;;;;;;;19.98;16.17;;;10.60;1.00;;;;;;5073764;28;20055;-61
2023/01/25 02:01:02;;;;;;;19.63;16.37;;;10.50;1.00;;;;;;5059854;28;20024;-61
2023/01/25 02:03:28;;;;;;;21.55;17.17;;;10.60;1.00;;;;;;5073541;28;20386;-60
2023/01/25 02:06:11;;;;;;;22.40;17.33;;;10.60;1.00;;;;;;5073628;28;20024;-60
2023/01/25 02:08:39;;;;;;;22.30;18.02;;;10.50;1.00;;;;;;5073365;28;20068;-60
2023/01/25 02:11:06;;;;;;;22.08;17.70;;;10.50;1.00;;;;;;5073532;28;20028;-60
2023/01/25 02:13:33;;;;;;;22.55;17.02;;;10.50;1.00;;;;;;5073391;28;20111;-60
2023/01/25 02:15:59;;;;;;;21.65;17.23;;;10.40;1.00;;;;;;5072871;28;20021;-60
2023/01/25 02:18:25;;;;;;;22.45;18.13;;;10.50;1.00;;;;;;5072306;28;20024;-60
2023/01/25 02:20:53;;;;;;;23.40;17.05;;;10.50;1.00;;;;;;5071967;28;20051;-60
2023/01/25 02:23:37;;;;;;;24.85;19.35;;;10.50;1.00;;;;;;5070952;28;20029;-60
2023/01/25 02:26:05;;;;;;;23.15;18.38;;;10.50;1.00;;;;;;5072493;28;20108;-60
2023/01/25 02:28:42;;;;;;;26.48;19.77;;;10.40;1.00;;;;;;5072599;28;20132;-59
2023/01/25 02:31:08;;;;;;;24.10;18.90;;;10.20;1.00;;;;;;5072932;28;20028;-59
2023/01/25 02:33:34;;;;;;;22.42;17.20;;;10.30;1.00;;;;;;5072921;28;20031;-60
2023/01/25 02:36:06;;;;;;;23.65;17.80;;;10.30;1.00;;;;;;5073116;28;20051;-59
2023/01/25 02:38:53;;;;;;;23.25;17.38;;;10.30;1.00;;;;;;5072833;28;20025;-59
2023/01/25 02:41:28;;;;;;;23.08;17.13;;;10.30;1.00;;;;;;5060223;28;20043;-60
2023/01/25 02:43:54;;;;;;;21.38;17.65;;;10.40;1.00;;;;;;5073050;28;20028;-59
2023/01/25 02:46:26;;;;;;;22.25;18.13;;;10.30;1.00;;;;;;5072729;28;20031;-60
2023/01/25 02:48:55;;;;;;;21.52;17.65;;;10.40;1.00;;;;;;5072240;28;20037;-59
2023/01/25 02:51:23;;;;;;;20.38;16.42;;;10.30;1.00;;;;;;5059120;28;20021;-59
2023/01/25 02:53:49;;;;;;;20.65;17.27;;;10.30;1.00;;;;;;5072391;28;20025;-59
2023/01/25 02:56:15;;;;;;;20.10;17.43;;;10.20;1.00;;;;;;5072534;28;20492;-59
2023/01/25 02:58:40;;;;;;;20.85;17.35;;;10.20;1.00;;;;;;5072375;28;20145;-59
2023/01/25 03:01:06;;;;;;;23.57;18.60;;;10.20;1.00;;;;;;5072336;28;20104;-59
2023/01/25 03:03:31;;;;;;;19.77;17.10;;;10.20;1.00;;;;;;5072211;28;20024;-60
2023/01/25 03:05:57;;;;;;;20.02;16.80;;;10.20;1.00;;;;;;5072299;28;20058;-59
2023/01/25 03:08:23;;;;;;;21.83;17.20;;;10.10;1.00;;;;;;5072423;28;20044;-59
2023/01/25 03:10:48;;;;;;;21.50;16.63;;;10.20;1.00;;;;;;5071341;28;20020;-59
2023/01/25 03:13:14;;;;;;;21.13;14.55;;;10.20;1.00;;;;;;5072244;28;20111;-59
2023/01/25 03:15:39;;;;;;;16.50;14.43;;;10.30;1.00;;;;;;5070945;28;20458;-59
2023/01/25 03:18:05;;;;;;;17.13;14.43;;;10.30;1.00;;;;;;5072462;28;20028;-59
2023/01/25 03:20:31;;;;;;;21.23;17.33;;;10.30;1.00;;;;;;5072200;28;20347;-59
2023/01/25 03:22:56;;;;;;;19.52;16.50;;;10.30;1.00;;;;;;5059872;28;20066;-59
2023/01/25 03:25:22;;;;;;;19.43;15.43;;;10.30;1.00;;;;;;5071303;28;20462;-59
2023/01/25 03:27:47;;;;;;;19.08;15.80;;;10.30;1.00;;;;;;5071903;28;20111;-59
2023/01/25 03:30:25;;;;;;;19.60;16.33;;;10.30;1.00;;;;;;5072229;28;20056;-59
2023/01/25 03:32:51;;;;;;;20.58;16.45;;;10.10;1.00;;;;;;5072030;28;20056;-59
2023/01/25 03:35:17;;;;;;;23.05;17.13;;;10.20;1.00;;;;;;5071934;28;20462;-59
2023/01/25 03:37:43;;;;;;;19.93;16.30;;;10.20;1.00;;;;;;5071996;28;20058;-59
2023/01/25 03:40:09;;;;;;;17.53;15.57;;;10.30;1.00;;;;;;5071846;28;20067;-59
2023/01/25 03:42:35;;;;;;;21.63;17.40;;;10.10;1.00;;;;;;5072336;28;20063;-59
2023/01/25 03:45:00;;;;;;;20.80;16.17;;;10.10;1.00;;;;;;5072049;28;20028;-60
2023/01/25 03:47:41;;;;;;;20.20;16.57;;;10.10;1.00;;;;;;5071748;28;20447;-60
2023/01/25 03:50:08;;;;;;;22.53;17.03;;;10.10;1.00;;;;;;5071566;28;20120;-60
2023/01/25 03:53:26;;;;;;;22.03;16.83;;;9.90;1.00;;;;;;5070112;28;20538;-60
2023/01/25 03:55:54;;;;;;;19.90;15.40;;;9.80;1.00;;;;;;5065552;28;20078;-60
2023/01/25 03:58:19;;;;;;;19.13;15.67;;;10.00;1.00;;;;;;5071712;28;20079;-60
2023/01/25 04:00:45;;;;;;;20.43;16.70;;;10.00;1.00;;;;;;5071671;28;20502;-60
2023/01/25 04:03:10;;;;;;;19.27;16.70;;;10.00;1.00;;;;;;5071749;28;20017;-60
2023/01/25 04:05:36;;;;;;;18.80;15.70;;;10.10;1.00;;;;;;5071895;28;20032;-60
2023/01/25 04:08:01;;;;;;;19.17;16.27;;;10.10;1.00;;;;;;5071875;28;20040;-60
2023/01/25 04:10:27;;;;;;;21.57;17.37;;;10.10;1.00;;;;;;5071579;28;20021;-60
2023/01/25 04:12:53;;;;;;;18.80;15.47;;;10.20;1.00;;;;;;5071744;28;20020;-60
2023/01/25 04:15:18;;;;;;;17.87;15.00;;;10.10;1.00;;;;;;5073603;28;20382;-59
2023/01/25 04:17:44;;;;;;;18.97;15.10;;;10.20;1.00;;;;;;5075786;28;20505;-60
2023/01/25 04:20:10;;;;;;;17.10;14.57;;;10.10;1.00;;;;;;5075359;28;20017;-60
2023/01/25 04:22:35;;;;;;;19.97;15.97;;;10.20;1.00;;;;;;5075358;28;20026;-60
2023/01/25 04:25:01;;;;;;;19.10;15.63;;;10.10;1.00;;;;;;5075015;28;20112;-60
2023/01/25 04:27:27;;;;;;;19.63;16.07;;;10.20;1.00;;;;;;5075294;28;20032;-60
2023/01/25 04:29:52;;;;;;;20.67;16.57;;;10.20;1.00;;;;;;5075058;28;20063;-60
2023/01/25 04:32:18;;;;;;;20.40;16.93;;;10.10;1.00;;;;;;5073901;28;20078;-60
2023/01/25 04:34:43;;;;;;;21.10;16.47;;;10.00;1.00;;;;;;5075038;28;20059;-58
2023/01/25 04:37:09;;;;;;;20.00;15.87;;;10.10;1.00;;;;;;5074923;28;20017;-59
2023/01/25 04:39:35;;;;;;;23.20;17.73;;;10.00;1.00;;;;;;5075313;28;20020;-59
2023/01/25 04:42:00;;;;;;;20.10;15.57;;;10.00;1.00;;;;;;5074992;28;20347;-59
2023/01/25 04:44:26;;;;;;;20.93;16.30;;;10.10;1.00;;;;;;5074922;28;20498;-59
2023/01/25 04:46:51;;;;;;;24.43;17.43;;;10.00;1.00;;;;;;5074894;28;20154;-58
2023/01/25 04:49:17;;;;;;;21.27;17.10;;;10.00;1.00;;;;;;5074639;28;20033;-59
2023/01/25 04:51:42;;;;;;;20.70;16.07;;;10.10;1.00;;;;;;5074624;28;20052;-59
2023/01/25 04:54:08;;;;;;;20.03;17.17;;;10.10;1.00;;;;;;5074991;28;20374;-59
2023/01/25 04:56:34;;;;;;;21.50;17.67;;;9.90;1.00;;;;;;5074776;28;20021;-60
2023/01/25 04:58:59;;;;;;;21.95;17.75;;;10.00;1.00;;;;;;5074592;28;20031;-59
2023/01/25 05:01:25;;;;;;;24.43;18.30;;;10.00;1.00;;;;;;5074657;28;20065;-59
2023/01/25 05:03:51;;;;;;;21.57;17.73;;;10.00;1.00;;;;;;5066032;28;20033;-59
2023/01/25 05:06:17;;;;;;;23.05;18.33;;;10.10;1.00;;;;;;5074444;28;20466;-59
2023/01/25 05:08:42;;;;;;;24.95;20.08;;;10.00;1.00;;;;;;5074482;28;20036;-60
2023/01/25 05:11:08;;;;;;;24.53;19.87;;;10.00;1.00;;;;;;5074350;28;20037;-59
2023/01/25 05:13:34;;;;;;;22.63;19.27;;;10.00;1.00;;;;;;5074781;28;20024;-59
2023/01/25 05:15:59;;;;;;;26.03;20.37;;;9.90;1.00;;;;;;5074380;28;20025;-59
2023/01/25 05:18:25;;;;;;;25.53;19.77;;;10.00;1.00;;;;;;5074329;28;20016;-59
2023/01/25 05:20:56;;;;;;;26.20;19.77;;;10.00;1.00;;;;;;5074369;28;20025;-60
2023/01/25 05:23:22;;;;;;;28.27;21.60;;;10.00;1.00;;;;;;5074408;28;20016;-58
2023/01/25 05:28:31;;;;;;;25.67;20.25;;;10.10;1.00;;;;;;5074109;28;20040;-59
2023/01/25 05:30:57;;;;;;;28.15;21.13;;;9.70;1.00;;;;;;5074237;28;20385;-60
2023/01/25 05:33:23;;;;;;;26.97;20.27;;;9.90;1.00;;;;;;5074265;28;20031;-60
2023/01/25 05:35:48;;;;;;;25.93;20.13;;;9.90;1.00;;;;;;5074093;28;20108;-60
2023/01/25 05:38:14;;;;;;;27.20;21.13;;;10.00;1.00;;;;;;5074121;28;20039;-60
2023/01/25 05:40:39;;;;;;;28.40;22.60;;;10.10;1.00;;;;;;5074182;28;20016;-59
2023/01/25 05:43:05;;;;;;;27.87;22.33;;;10.00;1.00;;;;;;5074133;28;20025;-59
2023/01/25 05:45:31;;;;;;;30.95;23.08;;;10.10;1.00;;;;;;5073812;28;20359;-59
2023/01/25 05:47:57;;;;;;;32.58;23.20;;;10.10;1.00;;;;;;5073908;28;20024;-59
2023/01/25 05:53:44;;;;;;;31.60;24.20;;;9.90;1.00;;;;;;5073630;28;20058;-60
2023/01/25 05:56:10;;;;;;;31.63;24.53;;;10.00;1.00;;;;;;5073967;28;20020;-60
2023/01/25 05:58:37;;;;;;;29.07;23.53;;;9.90;1.00;;;;;;5073457;28;20358;-60
2023/01/25 06:01:03;;;;;;;31.73;25.47;;;9.90;1.00;;;;;;5073434;28;20021;-60
2023/01/25 06:03:29;;;;;;;33.97;23.83;;;10.00;1.00;;;;;;5073672;28;20031;-60
2023/01/25 06:05:56;;;;;;;30.03;23.53;;;9.90;1.00;;;;;;5070426;28;20029;-60
2023/01/25 06:08:22;;;;;;;31.17;24.43;;;9.60;1.00;;;;;;5072690;28;20028;-60
2023/01/25 06:10:48;;;;;;;32.57;24.63;;;9.70;1.00;;;;;;5073205;28;20037;-60
2023/01/25 06:13:13;;;;;;;31.97;23.97;;;9.70;1.00;;;;;;5073486;28;20103;-60
2023/01/25 06:15:39;;;;;;;31.30;23.57;;;9.90;1.00;;;;;;5073314;28;20025;-60
2023/01/25 06:18:05;;;;;;;32.53;23.17;;;9.80;1.00;;;;;;5073059;28;20035;-60
2023/01/25 06:20:30;;;;;;;33.10;24.67;;;9.60;1.00;;;;;;5073189;28;20032;-60
2023/01/25 06:22:56;;;;;;;30.30;23.53;;;9.60;1.00;;;;;;5073007;28;20406;-60
2023/01/25 06:25:21;;;;;;;32.67;23.87;;;9.60;1.00;;;;;;5071491;28;20131;-60
2023/01/25 06:27:47;;;;;;;34.63;24.47;;;9.70;1.00;;;;;;5072900;28;20024;-60
2023/01/25 06:30:13;;;;;;;34.37;23.83;;;9.70;1.00;;;;;;5072900;28;20047;-60
2023/01/25 06:32:38;;;;;;;31.00;24.37;;;9.70;1.00;;;;;;5072901;28;20035;-60
2023/01/25 06:35:04;;;;;;;34.70;24.90;;;9.80;1.00;;;;;;5073079;28;20092;-60
2023/01/25 06:37:30;;;;;;;35.77;24.47;;;9.70;1.00;;;;;;5072684;28;20111;-60
2023/01/25 06:39:56;;;;;;;33.60;24.47;;;9.80;1.00;;;;;;5072713;28;20025;-60
2023/01/25 06:42:24;;;;;;;34.03;24.40;;;9.80;1.00;;;;;;5072889;28;20037;-60
2023/01/25 06:44:50;;;;;;;32.53;24.20;;;9.80;1.00;;;;;;5072699;28;20032;-60
2023/01/25 06:47:38;;;;;;;34.03;24.63;;;9.70;1.00;;;;;;5072955;28;20028;-59
2023/01/25 06:50:04;;;;;;;32.67;23.97;;;9.70;1.00;;;;;;5060526;28;20470;-60
2023/01/25 06:52:30;;;;;;;34.67;24.43;;;9.60;1.00;;;;;;5072772;28;20055;-60
2023/01/25 06:54:56;;;;;;;34.37;23.87;;;9.70;1.00;;;;;;5072609;28;20064;-60
2023/01/25 06:57:22;;;;;;;35.03;22.80;;;9.70;1.00;;;;;;5072481;28;20090;-60
2023/01/25 07:06:33;;;;;;;32.30;23.43;;;9.80;1.00;;;;;;5059016;28;20079;-59
2023/01/25 07:09:07;;;;;;;36.60;24.50;;;9.80;1.00;;;;;;5071713;28;20040;-60
2023/01/25 07:11:32;;;;;;;38.43;23.77;;;9.80;1.00;;;;;;5072399;28;20433;-60
2023/01/25 07:13:59;;;;;;;37.23;25.20;;;9.90;1.00;;;;;;5072301;28;20251;-60
2023/01/25 07:16:25;;;;;;;34.77;23.37;;;9.90;1.00;;;;;;5072419;28;20032;-60
2023/01/25 07:18:50;;;;;;;35.53;23.47;;;9.90;1.00;;;;;;5072252;28;20429;-60
2023/01/25 07:21:22;;;;;;;41.10;23.93;;;9.80;1.00;;;;;;5072268;28;20028;-60
2023/01/25 07:23:49;;;;;;;37.60;25.23;;;9.80;1.00;;;;;;5072022;28;20032;-60
2023/01/25 07:26:23;;;;;;;35.80;23.93;;;9.70;1.00;;;;;;5072244;28;20154;-60
2023/01/25 07:28:49;;;;;;;35.58;24.58;;;9.80;1.00;;;;;;5071716;28;20084;-60
2023/01/25 07:31:16;;;;;;;37.47;24.87;;;9.70;1.00;;;;;;5072100;28;20490;-60
2023/01/25 07:33:43;;;;;;;39.27;23.87;;;9.70;1.00;;;;;;5072006;28;20029;-60
2023/01/25 07:36:09;;;;;;;38.03;23.23;;;9.80;1.00;;;;;;5071995;28;20115;-60
2023/01/25 07:38:35;;;;;;;37.17;24.83;;;9.60;1.00;;;;;;5072189;28;20110;-60
2023/01/25 07:41:01;;;;;;;37.60;24.37;;;9.70;1.00;;;;;;5071766;28;20370;-60
2023/01/25 07:43:28;;;;;;;36.27;23.13;;;9.70;1.00;;;;;;5072024;28;20020;-59
2023/01/25 07:45:59;;;;;;;36.23;23.63;;;9.70;1.00;;;;;;5071797;28;20406;-59
2023/01/25 07:48:25;;;;;;;35.97;22.80;;;9.60;1.00;;;;;;5072030;28;20063;-59
2023/01/25 07:51:10;;;;;;;40.50;24.40;;;9.70;1.00;;;;;;5074744;28;20032;-59
2023/01/25 07:53:40;;;;;;;39.00;25.30;;;9.70;1.00;;;;;;5075789;28;20074;-59
2023/01/25 07:56:07;;;;;;;41.70;25.70;;;9.70;1.00;;;;;;5062212;28;20059;-59
2023/01/25 07:58:33;;;;;;;38.57;23.97;;;9.40;1.00;;;;;;5075623;28;20059;-59
2023/01/25 08:01:09;;;;;;;39.30;26.50;;;9.50;1.00;;;;;;5075807;28;20028;-59
2023/01/25 08:03:34;;;;;;;39.80;25.40;;;9.50;1.00;;;;;;5075932;28;20411;-59
2023/01/25 08:06:00;;;;;;;39.27;25.17;;;9.60;1.00;;;;;;5075957;28;20459;-59
2023/01/25 08:08:29;;;;;;;44.10;26.60;;;9.60;1.00;;;;;;5075685;28;20037;-60
2023/01/25 08:10:54;;;;;;;37.37;25.07;;;9.60;1.00;;;;;;5075890;28;20029;-60
2023/01/25 08:13:20;;;;;;;39.30;25.13;;;9.70;1.00;;;;;;5075783;28;20032;-60
2023/01/25 08:15:53;;;;;;;38.83;24.50;;;9.60;1.00;;;;;;5076340;28;20025;-60
2023/01/25 08:18:18;;;;;;;40.20;25.00;;;9.60;1.00;;;;;;5075419;28;20087;-60
2023/01/25 08:20:44;;;;;;;39.67;24.60;;;9.60;1.00;;;;;;5070708;28;20035;-60
2023/01/25 08:23:10;;;;;;;44.00;26.47;;;9.60;1.00;;;;;;5061421;28;20021;-60
2023/01/25 08:25:35;;;;;;;43.87;26.37;;;9.50;1.00;;;;;;5075135;28;20084;-60
2023/01/25 08:28:01;;;;;;;38.07;25.07;;;9.50;1.00;;;;;;5075419;28;20023;-60
2023/01/25 08:30:26;;;;;;;42.43;26.07;;;9.50;1.00;;;;;;5075002;28;20028;-60
2023/01/25 08:32:53;;;;;;;39.00;24.43;;;9.60;1.00;;;;;;5075152;28;20135;-60
2023/01/25 08:35:18;;;;;;;41.77;24.93;;;9.60;1.00;;;;;;5074995;28;20398;-60
2023/01/25 08:37:44;;;;;;;40.53;24.67;;;9.70;1.00;;;;;;5075288;28;20021;-60
2023/01/25 08:40:12;;;;;;;40.77;24.83;;;9.70;1.00;;;;;;5075179;28;20035;-60
2023/01/25 08:42:38;;;;;;;40.63;25.60;;;9.60;1.00;;;;;;5075532;28;20506;-60
2023/01/25 08:45:04;;;;;;;37.20;24.10;;;9.70;1.00;;;;;;5075218;28;20028;-60
2023/01/25 08:47:30;;;;;;;43.27;24.40;;;9.70;1.00;;;;;;5075576;28;20044;-60
2023/01/25 08:49:56;;;;;;;88.67;29.37;;;9.70;1.00;;;;;;5075202;28;20049;-60
2023/01/25 08:52:21;;;;;;;41.17;25.03;;;9.80;1.00;;;;;;5073892;28;20123;-60
2023/01/25 08:54:47;;;;;;;38.90;25.90;;;9.80;1.00;;;;;;5074230;28;20029;-60
2023/01/25 08:57:12;;;;;;;41.03;24.40;;;9.80;1.00;;;;;;5075325;28;20024;-60
2023/01/25 08:59:38;;;;;;;42.93;25.70;;;9.70;1.00;;;;;;5073860;28;20040;-58
2023/01/25 09:02:04;;;;;;;39.80;25.90;;;9.70;1.00;;;;;;5074849;28;20036;-59
2023/01/25 09:04:30;;;;;;;40.13;24.67;;;9.60;1.00;;;;;;5073804;28;20074;-59
2023/01/25 09:07:08;;;;;;;37.53;23.53;;;9.70;1.00;;;;;;5075055;28;20074;-60
2023/01/25 09:09:33;;;;;;;35.23;23.30;;;9.70;1.00;;;;;;5071677;28;20032;-61
2023/01/25 09:11:59;;;;;;;38.10;23.43;;;9.80;1.00;;;;;;5074877;28;20086;-60
2023/01/25 09:14:24;;;;;;;37.70;25.07;;;9.80;1.00;;;;;;5075116;28;20024;-60
2023/01/25 09:16:50;;;;;;;37.23;24.93;;;9.90;1.00;;;;;;5075008;28;20359;-59
2023/01/25 09:19:16;;;;;;;35.43;23.00;;;9.80;1.00;;;;;;5074762;28;20020;-58
2023/01/25 09:21:41;;;;;;;39.13;24.53;;;9.70;1.00;;;;;;5074727;28;20097;-60
2023/01/25 09:24:07;;;;;;;34.90;22.48;;;9.80;1.00;;;;;;5075004;28;20083;-60
2023/01/25 09:26:38;;;;;;;31.13;21.10;;;9.80;1.00;;;;;;5074848;28;20031;-62
2023/01/25 09:29:06;;;;;;;36.08;22.27;;;9.90;1.00;;;;;;5075328;28;20028;-64
2023/01/25 09:31:32;;;;;;;48.22;23.83;;;10.00;1.00;;;;;;5074704;28;20421;-59
2023/01/25 09:33:58;;;;;;;37.37;23.20;;;9.90;1.00;;;;;;5074753;28;20021;-60
2023/01/25 09:36:24;;;;;;;36.10;22.90;;;10.00;1.00;;;;;;5074969;28;20044;-59
2023/01/25 09:38:50;;;;;;;35.70;22.85;;;10.10;1.00;;;;;;5074893;28;20104;-57
2023/01/25 09:41:46;;;;;;;32.55;21.88;;;10.20;1.00;;;;;;5073601;28;20048;-58
2023/01/25 09:44:17;;;;;;;31.17;21.87;;;10.00;1.00;;;;;;5062859;28;20033;-60
2023/01/25 09:46:49;;;;;;;35.87;22.20;;;10.10;1.00;;;;;;5074340;28;20025;-70
2023/01/25 09:49:33;;;;;;;34.70;24.10;;;10.10;1.00;;;;;;5073400;28;20063;-67
2023/01/25 09:52:20;;;;;;;31.17;22.35;;;10.10;1.00;;;;;;5075903;28;20056;-63
2023/01/25 09:54:46;;;;;;;35.72;24.15;;;10.00;1.00;;;;;;5063244;28;20016;-69
2023/01/25 09:57:30;;;;;;;47.50;24.65;;;10.00;1.00;;;;;;5074118;28;20025;-60
2023/01/25 10:00:00;;;;;;;33.22;23.23;;;10.10;1.00;;;;;;5074245;28;20029;-59
2023/01/25 10:02:26;;;;;;;35.23;23.47;;;10.20;1.00;;;;;;5074068;28;20052;-62
2023/01/25 10:04:56;;;;;;;35.50;25.13;;;10.20;1.00;;;;;;5074017;28;20021;-61
2023/01/25 10:07:26;;;;;;;35.03;24.13;;;10.30;1.00;;;;;;5074001;28;20131;-59
2023/01/25 10:10:15;;;;;;;34.83;22.85;;;10.40;1.00;;;;;;5073794;28;20545;-62
2023/01/25 10:12:41;;;;;;;34.90;22.85;;;10.30;1.00;;;;;;5073144;28;20059;-66
2023/01/25 10:15:18;;;;;;;53.95;26.38;;;10.40;1.00;;;;;;5072561;28;20052;-58
2023/01/25 10:17:44;;;;;;;42.25;23.40;;;10.50;1.00;;;;;;5073669;28;20100;-58
2023/01/25 10:20:37;;;;;;;42.47;23.50;;;10.60;1.00;;;;;;5072469;28;20064;-55
2023/01/25 10:23:38;;;;;;;35.17;23.70;;;10.80;1.00;;;;;;5073410;28;20547;-55
2023/01/25 10:26:18;;;;;;;33.45;22.17;;;10.90;1.00;;;;;;5073400;28;20067;-54
2023/01/25 10:29:14;;;;;;;33.30;22.05;;;11.00;1.00;;;;;;5072980;28;20033;-58
2023/01/25 10:31:49;;;;;;;34.53;22.85;;;11.10;1.00;;;;;;5073396;28;20055;-54
2023/01/25 10:34:17;;;;;;;32.97;22.85;;;11.20;1.00;;;;;;5072004;28;20446;-58
2023/01/25 10:36:47;;;;;;;32.58;22.77;;;11.30;1.00;;;;;;5073179;28;20028;-54
2023/01/25 10:39:14;;;;;;;30.77;20.92;;;11.30;1.00;;;;;;5070110;28;20024;-54
2023/01/25 10:41:57;;;;;;;32.83;20.40;;;11.40;1.00;;;;;;5069438;28;20090;-58
2023/01/25 10:44:24;;;;;;;31.90;21.52;;;11.40;1.00;;;;;;5061855;28;20017;-58
2023/01/25 10:46:59;;;;;;;36.35;21.33;;;11.40;1.00;;;;;;5072514;28;20039;-60
2023/01/25 10:49:33;;;;;;;29.77;21.15;;;11.50;1.00;;;;;;5070020;28;20127;-60
2023/01/25 10:52:17;;;;;;;29.20;21.27;;;11.50;1.00;;;;;;5071296;28;20506;-59
2023/01/25 10:54:43;;;;;;;29.83;20.42;;;11.30;1.00;;;;;;5071630;28;20032;-59
2023/01/25 10:57:17;;;;;;;32.25;21.50;;;11.10;1.00;;;;;;5074084;28;20074;-60
2023/01/25 11:00:18;;;;;;;31.52;20.63;;;11.20;1.00;;;;;;5070850;28;20020;-56
2023/01/25 11:02:46;;;;;;;29.25;19.88;;;11.30;1.00;;;;;;5055550;28;20043;-57
2023/01/25 11:05:17;;;;;;;30.20;21.92;;;11.30;1.00;;;;;;5070615;28;20020;-61
2023/01/25 11:07:43;;;;;;;31.35;21.55;;;11.30;1.00;;;;;;5072033;28;20032;-60
2023/01/25 11:10:35;;;;;;;35.60;22.00;;;11.30;1.00;;;;;;5073619;28;20054;-62
2023/01/25 11:13:18;;;;;;;29.45;20.75;;;11.30;1.00;;;;;;5060313;28;20028;-63
2023/01/25 11:15:47;;;;;;;30.25;19.60;;;11.00;1.00;;;;;;5072085;28;20378;-59
2023/01/25 11:18:19;;;;;;;24.70;18.48;;;11.30;1.00;;;;;;5073450;28;20378;-59
2023/01/25 11:20:45;;;;;;;24.35;18.05;;;11.50;1.00;;;;;;5075338;28;20344;-58
2023/01/25 11:23:25;;;;;;;22.70;17.30;;;11.40;1.00;;;;;;5072745;28;20089;-56
2023/01/25 11:25:51;;;;;;;22.80;16.77;;;11.40;1.00;;;;;;5073369;28;20049;-56
2023/01/25 11:28:21;;;;;;;22.48;15.52;;;11.40;1.00;;;;;;5072759;28;20700;-59
2023/01/25 11:30:47;;;;;;;23.55;16.88;;;11.20;1.00;;;;;;5073246;28;20385;-58
2023/01/25 11:33:15;;;;;;;24.85;17.02;;;11.40;1.00;;;;;;5075423;28;20028;-58
2023/01/25 11:36:18;;;;;;;26.65;15.40;;;11.30;1.00;;;;;;5074554;28;20036;-59
2023/01/25 11:39:20;;;;;;;21.08;15.65;;;11.30;1.00;;;;;;5073948;28;20108;-58
2023/01/25 11:42:09;;;;;;;22.52;15.10;;;11.40;1.00;;;;;;5074127;28;20090;-59
2023/01/25 11:44:52;;;;;;;19.42;12.68;;;11.30;1.00;;;;;;5073101;28;20020;-58
2023/01/25 11:47:59;;;;;;;16.95;13.15;;;11.30;1.00;;;;;;5072724;28;20483;-58
2023/01/25 11:50:38;;;;;;;20.70;14.75;;;11.40;1.00;;;;;;5073001;28;20033;-59
2023/01/25 11:53:48;;;;;;;24.23;16.90;;;11.40;1.00;;;;;;5071369;28;20024;-60
2023/01/25 11:56:20;;;;;;;24.38;17.60;;;11.40;1.00;;;;;;5005911;28;20034;-58
2023/01/25 11:59:07;;;;;;;23.23;16.88;;;11.40;1.00;;;;;;4995490;28;20035;-57
2023/01/25 12:01:55;;;;;;;24.80;15.50;;;11.40;1.00;;;;;;5043078;28;20036;-56
2023/01/25 12:05:17;;;;;;;24.13;15.00;;;11.50;1.00;;;;;;5070224;28;20150;-51
2023/01/25 12:07:50;;;;;;;20.38;13.90;;;11.50;1.00;;;;;;5022506;28;20048;-53
2023/01/25 12:10:15;;;;;;;23.00;15.50;;;11.50;1.00;;;;;;5017545;28;20037;-50
2023/01/25 12:13:13;;;;;;;19.23;13.35;;;11.50;1.00;;;;;;5049746;28;20033;-50
2023/01/25 12:15:58;;;;;;;24.92;15.23;;;11.50;1.00;;;;;;5058953;28;20119;-54
2023/01/25 12:18:39;;;;;;;;;;;11.50;1.00;;;;;;5070698;28;20031;-50
2023/01/25 12:21:08;;;;;;;19.13;14.75;;;11.60;1.00;;;;;;5069084;28;20400;-53
2023/01/25 12:23:56;;;;;;;27.60;16.73;;;11.50;1.00;;;;;;5084071;28;20029;-50
2023/01/25 12:26:36;;;;;;;21.88;13.10;;;11.60;1.00;;;;;;5068808;28;20025;-59
2023/01/25 12:29:16;;;;;;;21.23;14.90;;;11.60;1.00;;;;;;5070328;28;20424;-58
2023/01/25 12:32:08;;;;;;;16.13;12.63;;;11.70;1.00;;;;;;5070995;28;20052;-58
2023/01/25 12:34:41;;;;;;;21.88;13.00;;;11.70;1.00;;;;;;5070815;28;20070;-57
2023/01/25 12:37:21;;;;;;;17.80;12.55;;;11.90;1.00;;;;;;5073161;28;20397;-58
2023/01/25 12:39:57;;;;;;;21.50;13.30;;;11.90;1.00;;;;;;5074453;28;20133;-58
2023/01/25 12:42:30;;;;;;;19.00;13.80;;;12.00;1.00;;;;;;5072820;28;20032;-58
2023/01/25 12:45:13;;;;;;;20.10;13.95;;;12.00;1.00;;;;;;5071527;28;21760;-57
2023/01/25 12:47:48;;;;;;;19.17;14.07;;;12.10;1.00;;;;;;5065761;28;20183;-56
2023/01/25 12:50:42;;;;;;;19.25;13.13;;;12.10;1.00;;;;;;5073828;28;20129;-57
2023/01/25 12:53:26;;;;;;;17.25;12.70;;;12.20;1.00;;;;;;5069544;28;20182;-57
2023/01/25 12:55:53;;;;;;;18.65;13.13;;;12.20;1.00;;;;;;5064422;28;20024;-57
2023/01/25 12:58:37;;;;;;;19.30;13.77;;;12.30;1.00;;;;;;5073241;28;20040;-57
2023/01/25 13:01:05;;;;;;;20.27;14.23;;;12.40;1.00;;;;;;5072058;28;20136;-58
2023/01/25 13:04:09;;;;;;;20.10;14.18;;;12.40;1.00;;;;;;5071419;28;20478;-58
2023/01/25 13:06:53;;;;;;;19.30;14.48;;;12.30;1.00;;;;;;5061561;28;20046;-56
2023/01/25 13:09:56;;;;;;;24.50;14.77;;;12.20;1.00;;;;;;5061069;28;20119;-57
2023/01/25 13:12:23;;;;;;;96.70;21.88;;;12.10;1.00;;;;;;5064352;28;20043;-58
2023/01/25 13:14:49;;;;;;;57.95;17.98;;;12.10;1.00;;;;;;5075005;28;20031;-60
2023/01/25 13:17:26;;;;;;;26.08;13.52;;;12.20;1.00;;;;;;5075334;28;20021;-60